createdAt,value
2023-05-13T00:00:57.984Z,21.60
2023-05-13T00:07:01.393Z,21.30
2023-05-13T00:13:04.906Z,20.08
2023-05-13T00:19:09.801Z,19.75
2023-05-13T00:25:13.296Z,17.80
2023-05-13T00:31:16.857Z,16.55
2023-05-13T00:37:21.674Z,18.02
2023-05-13T00:43:25.081Z,16.42
2023-05-13T00:49:28.902Z,16.55
2023-05-13T00:55:33.751Z,17.10
2023-05-13T01:01:43.788Z,15.90
2023-05-13T01:07:50.501Z,18.00
2023-05-13T01:13:59.715Z,17.63
2023-05-13T01:20:04.958Z,17.35
2023-05-13T01:26:09.725Z,16.92
2023-05-13T01:32:14.521Z,17.30
2023-05-13T01:38:20.838Z,16.02
2023-05-13T01:44:25.679Z,17.15
2023-05-13T01:50:29.096Z,17.95
2023-05-13T01:56:32.588Z,18.25
2023-05-13T02:02:37.411Z,16.65
2023-05-13T02:08:40.892Z,16.77
2023-05-13T02:14:44.316Z,18.08
2023-05-13T02:20:49.199Z,18.23
2023-05-13T02:26:53.026Z,18.83
2023-05-13T02:32:56.889Z,19.08
2023-05-13T02:39:01.984Z,19.08
2023-05-13T02:45:05.597Z,19.13
2023-05-13T02:51:09.631Z,18.83
2023-05-13T02:57:14.873Z,19.75
2023-05-13T03:03:18.417Z,19.50
2023-05-13T03:09:22.002Z,17.73
2023-05-13T03:15:27.102Z,18.88
2023-05-13T03:21:30.524Z,17.77
2023-05-13T03:27:33.921Z,17.92
2023-05-13T03:33:38.670Z,18.10
2023-05-13T03:39:43.082Z,19.30
2023-05-13T03:45:48.458Z,17.60
2023-05-13T03:51:53.222Z,17.40
2023-05-13T03:57:56.653Z,17.92
2023-05-13T04:04:00.077Z,18.30
2023-05-13T04:10:04.963Z,18.33
2023-05-13T04:16:08.562Z,19.02
2023-05-13T04:22:12.020Z,17.55
2023-05-13T04:28:18.108Z,18.15
2023-05-13T04:34:21.558Z,17.80
2023-05-13T04:40:25.060Z,16.55
2023-05-13T04:46:30.011Z,16.83
2023-05-13T04:52:33.537Z,16.38
2023-05-13T04:58:37.157Z,16.08
2023-05-13T05:04:41.915Z,15.02
2023-05-13T05:10:45.463Z,15.18
2023-05-13T05:16:48.914Z,15.07
2023-05-13T05:22:53.703Z,14.82
2023-05-13T05:28:57.130Z,14.02
2023-05-13T05:35:02.860Z,13.65
2023-05-13T05:41:08.076Z,13.45
2023-05-13T05:47:11.606Z,12.90
2023-05-13T05:53:15.705Z,13.70
2023-05-13T05:59:20.527Z,12.75
2023-05-13T06:05:24.129Z,12.82
2023-05-13T06:11:27.684Z,12.95
2023-05-13T06:17:32.759Z,13.13
2023-05-13T06:23:36.171Z,12.77
2023-05-13T06:29:39.842Z,11.98
2023-05-13T06:35:48.111Z,12.05
2023-05-13T06:41:51.525Z,10.63
2023-05-13T06:47:55.117Z,10.30
2023-05-13T06:53:59.944Z,9.90
2023-05-13T07:00:04.072Z,9.65
2023-05-13T07:06:07.776Z,8.68
2023-05-13T07:12:12.558Z,9.30
2023-05-13T07:18:16.163Z,9.15
2023-05-13T07:24:19.599Z,8.65
2023-05-13T07:30:24.786Z,8.57
2023-05-13T07:36:29.004Z,8.15
2023-05-13T07:42:32.903Z,8.10
2023-05-13T07:48:37.700Z,8.32
2023-05-13T07:54:41.288Z,7.57
2023-05-13T08:00:44.894Z,7.47
2023-05-13T08:06:49.662Z,7.32
2023-05-13T08:12:57.731Z,7.80
2023-05-13T08:19:01.617Z,8.60
2023-05-13T08:25:06.957Z,8.60
2023-05-13T08:31:10.468Z,9.18
2023-05-13T08:37:14.077Z,8.88
2023-05-13T08:43:18.947Z,8.57
2023-05-13T08:49:22.612Z,9.18
2023-05-13T08:55:26.151Z,8.82
2023-05-13T09:01:32.106Z,9.50
2023-05-13T09:07:35.689Z,10.05
2023-05-13T09:13:39.110Z,9.18
2023-05-13T09:19:44.099Z,10.50
2023-05-13T09:25:47.663Z,10.15
2023-05-13T09:31:51.832Z,10.45
2023-05-13T09:37:56.883Z,10.82
2023-05-13T09:44:00.529Z,11.38
2023-05-13T09:50:04.492Z,11.25
2023-05-13T09:56:11.748Z,11.27
2023-05-13T10:02:17.522Z,9.95
2023-05-13T10:08:21.109Z,11.38
2023-05-13T10:14:26.207Z,11.15
2023-05-13T10:20:30.006Z,11.02
2023-05-13T10:26:34.388Z,11.77
2023-05-13T10:32:40.211Z,12.23
2023-05-13T10:38:52.932Z,13.07
2023-05-13T10:44:56.847Z,13.07
2023-05-13T10:51:03.513Z,12.65
2023-05-13T10:57:07.167Z,11.70
2023-05-13T11:03:14.514Z,12.75
2023-05-13T11:09:32.239Z,11.25
2023-05-13T11:15:45.634Z,12.65
2023-05-13T11:21:50.248Z,12.68
2023-05-13T11:27:55.568Z,13.65
2023-05-13T11:34:09.747Z,13.68
2023-05-13T11:40:14.013Z,13.23
2023-05-13T11:46:22.869Z,12.00
2023-05-13T11:52:26.423Z,13.45
2023-05-13T11:58:29.853Z,13.68
2023-05-13T12:04:34.640Z,13.02
2023-05-13T12:10:44.617Z,13.35
2023-05-13T12:16:48.193Z,13.38
2023-05-13T12:22:53.829Z,12.93
2023-05-13T12:29:00.910Z,13.00
2023-05-13T12:35:04.489Z,13.27
2023-05-13T12:41:14.270Z,13.90
2023-05-13T12:47:20.198Z,13.68
2023-05-13T12:53:23.681Z,13.43
2023-05-13T12:59:30.433Z,13.50
2023-05-13T13:05:34.181Z,13.20
2023-05-13T13:11:37.585Z,13.57
2023-05-13T13:17:42.762Z,12.98
2023-05-13T13:23:49.410Z,12.95
2023-05-13T13:29:52.801Z,12.65
2023-05-13T13:35:57.897Z,12.57
2023-05-13T13:42:01.288Z,11.57
2023-05-13T13:48:04.821Z,12.80
2023-05-13T13:54:09.789Z,12.75
2023-05-13T14:00:14.462Z,11.90
2023-05-13T14:06:17.998Z,12.45
2023-05-13T14:12:22.804Z,12.27
2023-05-13T14:18:26.518Z,12.55
2023-05-13T14:24:29.986Z,12.13
2023-05-13T14:30:34.803Z,13.93
2023-05-13T14:36:38.403Z,12.95
2023-05-13T14:42:41.768Z,12.65
2023-05-13T14:48:46.524Z,12.77
2023-05-13T14:54:50.144Z,13.93
2023-05-13T15:00:53.758Z,13.48
2023-05-13T15:06:58.712Z,12.18
2023-05-13T15:13:02.162Z,12.95
2023-05-13T15:19:05.616Z,11.63
2023-05-13T15:25:10.880Z,12.05
2023-05-13T15:31:14.351Z,12.00
2023-05-13T15:37:18.015Z,11.73
2023-05-13T15:43:22.921Z,11.15
2023-05-13T15:49:27.365Z,11.23
2023-05-13T15:55:32.168Z,11.20
2023-05-13T16:01:39.274Z,10.25
2023-05-13T16:07:42.925Z,10.30
2023-05-13T16:13:48.033Z,10.10
2023-05-13T16:19:53.120Z,9.63
2023-05-13T16:25:56.629Z,9.88
2023-05-13T16:32:00.305Z,11.93
2023-05-13T16:38:05.175Z,11.88
2023-05-13T16:44:08.728Z,11.63
2023-05-13T16:50:12.610Z,11.23
2023-05-13T16:56:17.487Z,11.88
2023-05-13T17:02:20.977Z,11.68
2023-05-13T17:08:25.476Z,11.38
2023-05-13T17:14:30.342Z,11.60
2023-05-13T17:20:33.743Z,12.05
2023-05-13T17:26:38.751Z,12.07
2023-05-13T17:32:43.997Z,11.48
2023-05-13T17:38:47.721Z,10.98
2023-05-13T17:44:51.181Z,12.20
2023-05-13T17:50:56.220Z,12.18
2023-05-13T17:56:59.591Z,11.25
2023-05-13T18:03:03.114Z,11.98
2023-05-13T18:09:07.917Z,11.88
2023-05-13T18:15:11.615Z,11.48
2023-05-13T18:21:15.054Z,12.35
2023-05-13T18:27:19.856Z,12.95
2023-05-13T18:33:23.331Z,12.55
2023-05-13T18:39:26.976Z,12.15
2023-05-13T18:45:32.098Z,12.55
2023-05-13T18:51:36.750Z,13.23
2023-05-13T18:57:40.438Z,13.88
2023-05-13T19:03:48.167Z,14.05
2023-05-13T19:09:52.387Z,13.63
2023-05-13T19:15:56.268Z,13.90
2023-05-13T19:22:01.147Z,14.55
2023-05-13T19:28:04.677Z,15.10
2023-05-13T19:34:08.226Z,15.60
2023-05-13T19:40:13.592Z,15.63
2023-05-13T19:46:17.020Z,14.50
2023-05-13T19:52:20.898Z,13.93
2023-05-13T19:58:26.359Z,16.17
2023-05-13T20:04:30.387Z,16.42
2023-05-13T20:10:35.525Z,17.20
2023-05-13T20:16:40.971Z,16.65
2023-05-13T20:22:44.534Z,16.40
2023-05-13T20:28:48.735Z,16.35
2023-05-13T20:34:54.781Z,16.98
2023-05-13T20:40:58.219Z,17.48
2023-05-13T20:47:01.772Z,15.15
2023-05-13T20:53:07.185Z,15.95
2023-05-13T20:59:11.025Z,17.27
2023-05-13T21:05:14.446Z,17.35
2023-05-13T21:11:19.334Z,18.35
2023-05-13T21:17:24.479Z,17.75
2023-05-13T21:23:28.052Z,16.98
2023-05-13T21:29:33.068Z,16.33
2023-05-13T21:35:36.507Z,15.45
2023-05-13T21:41:40.093Z,15.38
2023-05-13T21:47:44.955Z,14.13
2023-05-13T21:53:49.194Z,13.65
2023-05-13T21:59:52.668Z,14.00
2023-05-13T22:05:57.725Z,14.50
2023-05-13T22:12:01.143Z,14.23
2023-05-13T22:18:04.714Z,14.75
2023-05-13T22:24:09.743Z,14.25
2023-05-13T22:30:13.364Z,14.60
2023-05-13T22:36:16.988Z,14.10
2023-05-13T22:42:22.728Z,13.70
2023-05-13T22:48:26.837Z,13.60
2023-05-13T22:54:31.050Z,13.30
2023-05-13T23:00:36.430Z,15.57
2023-05-13T23:06:40.026Z,14.82
2023-05-13T23:12:43.421Z,15.05
2023-05-13T23:18:48.281Z,15.95
2023-05-13T23:24:51.724Z,14.13
2023-05-13T23:30:55.153Z,16.75
2023-05-13T23:37:00.035Z,17.73
2023-05-13T23:43:03.451Z,18.02
2023-05-13T23:49:06.865Z,19.65
2023-05-13T23:55:11.965Z,19.20
